Time;durP1;ratioP1;P1;durP2;ratioP2;P2;SDS_P1;SDS_P2;PMS_P1;PMS_P2;Temp;Humidity;BMP_temperature;BMP_pressure;BME280_temperature;BME280_humidity;BME280_pressure;Samples;Min_cycle;Max_cycle;Signal;HPM_P1;HPM_P2
2022/12/08 00:00:07;;;;;;;;;;;;;;;;;;352692;28;909;-81
2022/12/08 00:00:17;;;;;;;;;;;;;;;;;;352658;28;904;-80
2022/12/08 00:00:27;;;;;;;;;;;;;;;;;;352733;28;872;-81
2022/12/08 00:00:38;;;;;;;;;;;;;;;;;;352730;28;848;-80
2022/12/08 00:00:48;;;;;;;;;;;;;;;;;;352668;28;1018;-80
2022/12/08 00:01:05;;;;;;;;;;;;;;;;;;352667;28;983;-81
2022/12/08 00:01:17;;;;;;;;;;;;;;;;;;352718;28;920;-81
2022/12/08 00:01:28;;;;;;;;;;;;;;;;;;352741;28;789;-80
2022/12/08 00:01:38;;;;;;;;;;;;;;;;;;352644;28;1047;-80
2022/12/08 00:01:48;;;;;;;;;;;;;;;;;;352714;28;908;-80
2022/12/08 00:01:59;;;;;;;;;;;;;;;;;;352717;28;892;-81
2022/12/08 00:02:10;;;;;;;;;;;;;;;;;;352728;28;837;-81
2022/12/08 00:02:20;;;;;;;;;;;;;;;;;;352636;28;1011;-80
2022/12/08 00:02:30;;;;;;;;;;;;;;;;;;352461;28;1988;-80
2022/12/08 00:02:43;;;;;;;;;;;;;;;;;;352725;28;856;-80
2022/12/08 00:02:53;;;;;;;;;;;;;;;;;;352657;28;1028;-81
2022/12/08 00:03:03;;;;;;;;;;;;;;;;;;352603;28;1020;-80
2022/12/08 00:03:13;;;;;;;;;;;;;;;;;;352687;28;888;-80
2022/12/08 00:03:24;;;;;;;;;;;;;;;;;;352697;28;936;-81
2022/12/08 00:03:34;;;;;;;;;;;;;;;;;;352763;28;901;-81
2022/12/08 00:03:45;;;;;;;;;;;;;;;;;;352473;28;998;-80
2022/12/08 00:03:56;;;;;;;;;;;;;;;;;;350104;28;1554;-80
2022/12/08 00:04:07;;;;;;;;;;;;;;;;;;351314;28;834;-80
2022/12/08 00:04:17;;;;;;;;;;;;;;;;;;351322;28;912;-81
2022/12/08 00:04:27;;;;;;;;;;;;;;;;;;351305;28;908;-80
2022/12/08 00:09:20;;;;;;;;;;;;;;;;;;351319;28;924;-81
2022/12/08 00:09:22;;;;;;;;;;;;;;;;;;349865;28;996;-81
2022/12/08 00:09:34;;;;;;;;;;;;;;;;;;350133;28;929;-81
2022/12/08 00:09:44;;;;;;;;;;;;;;;;;;350183;28;983;-83
2022/12/08 00:09:54;;;;;;;;;;;;;;;;;;350170;28;952;-82
2022/12/08 00:10:05;;;;;;;;;;;;;;;;;;350137;28;1011;-81
2022/12/08 00:10:15;;;;;;;;;;;;;;;;;;350191;28;1024;-81
2022/12/08 00:10:25;;;;;;;;;;;;;;;;;;350208;28;885;-81
2022/12/08 00:10:35;;;;;;;;;;;;;;;;;;350147;28;987;-81
2022/12/08 00:10:45;;;;;;;;;;;;;;;;;;350182;28;818;-82
2022/12/08 00:10:56;;;;;;;;;;;;;;;;;;350214;28;806;-82
2022/12/08 00:11:11;;;;;;;;;;;;;;;;;;350118;28;972;-83
2022/12/08 00:11:21;;;;;;;;;;;;;;;;;;350089;28;1012;-82
2022/12/08 00:11:32;;;;;;;;;;;;;;;;;;350212;28;916;-82
2022/12/08 00:11:42;;;;;;;;;;;;;;;;;;350155;28;980;-82
2022/12/08 00:11:54;;;;;;;;;;;;;;;;;;350171;28;810;-82
2022/12/08 00:12:11;;;;;;;;;;;;;;;;;;350104;28;988;-81
2022/12/08 00:12:21;;;;;;;;;;;;;;;;;;350124;28;792;-82
2022/12/08 00:12:31;;;;;;;;;;;;;;;;;;350187;28;984;-82
2022/12/08 00:12:41;;;;;;;;;;;;;;;;;;350164;28;886;-81
2022/12/08 00:12:51;;;;;;;;;;;;;;;;;;350124;28;841;-81
2022/12/08 00:13:02;;;;;;;;;;;;;;;;;;350176;28;759;-81
2022/12/08 00:13:12;;;;;;;;;;;;;;;;;;350163;28;1027;-81
2022/12/08 00:13:22;;;;;;;;;;;;;;;;;;350130;28;837;-82
2022/12/08 00:13:32;;;;;;;;;;;;;;;;;;350237;28;948;-82
2022/12/08 00:13:43;;;;;;;;;;;;;;;;;;350190;28;921;-82
2022/12/08 00:13:53;;;;;;;;;;;;;;;;;;350134;28;948;-82
2022/12/08 00:14:03;;;;;;;;;;;;;;;;;;350152;28;821;-82
2022/12/08 00:14:14;;;;;;;;;;;;;;;;;;350162;28;961;-82
2022/12/08 00:14:26;;;;;;;;;;;;;;;;;;350107;28;932;-81
2022/12/08 00:14:38;;;;;;;;;;;;;;;;;;350200;28;854;-82
2022/12/08 00:14:48;;;;;;;;;;;;;;;;;;350181;28;908;-82
2022/12/08 00:14:58;;;;;;;;;;;;;;;;;;350168;28;927;-83
2022/12/08 00:15:09;;;;;;;;;;;;;;;;;;350160;28;944;-82
2022/12/08 00:15:19;;;;;;;;;;;;;;;;;;350166;28;1008;-82
2022/12/08 00:15:29;;;;;;;;;;;;;;;;;;350082;28;901;-82
2022/12/08 00:15:39;;;;;;;;;;;;;;;;;;350159;28;925;-83
2022/12/08 00:15:49;;;;;;;;;;;;;;;;;;350178;28;845;-82
2022/12/08 00:16:00;;;;;;;;;;;;;;;;;;350106;28;936;-82
2022/12/08 00:16:10;;;;;;;;;;;;;;;;;;350156;28;965;-81
2022/12/08 00:16:20;;;;;;;;;;;;;;;;;;350189;28;941;-82
2022/12/08 00:16:30;;;;;;;;;;;;;;;;;;350142;28;959;-82
2022/12/08 00:16:41;;;;;;;;;;;;;;;;;;350145;28;1208;-82
2022/12/08 00:16:51;;;;;;;;;;;;;;;;;;350112;28;991;-81
2022/12/08 00:17:02;;;;;;;;;;;;;;;;;;350159;28;845;-81
2022/12/08 00:17:13;;;;;;;;;;;;;;;;;;350177;28;913;-81
2022/12/08 00:17:24;;;;;;;;;;;;;;;;;;350134;28;862;-82
2022/12/08 00:17:34;;;;;;;;;;;;;;;;;;350085;28;928;-81
2022/12/08 00:17:44;;;;;;;;;;;;;;;;;;350158;28;1054;-82
2022/12/08 00:17:54;;;;;;;;;;;;;;;;;;350190;28;857;-81
2022/12/08 00:18:04;;;;;;;;;;;;;;;;;;349930;28;1046;-81
2022/12/08 00:18:15;;;;;;;;;;;;;;;;;;350206;28;826;-82
2022/12/08 00:18:25;;;;;;;;;;;;;;;;;;350075;28;920;-81
2022/12/08 00:18:35;;;;;;;;;;;;;;;;;;350474;28;1337;-81
2022/12/08 00:18:46;;;;;;;;;;;;;;;;;;350029;28;1490;-82
2022/12/08 00:18:56;;;;;;;;;;;;;;;;;;350128;28;984;-83
2022/12/08 00:19:06;;;;;;;;;;;;;;;;;;350132;28;969;-81
2022/12/08 00:19:16;;;;;;;;;;;;;;;;;;350193;28;968;-82
2022/12/08 00:19:26;;;;;;;;;;;;;;;;;;350125;28;991;-81
2022/12/08 00:19:40;;;;;;;;;;;;;;;;;;350141;28;854;-82
2022/12/08 00:19:51;;;;;;;;;;;;;;;;;;350121;28;921;-82
2022/12/08 00:20:01;;;;;;;;;;;;;;;;;;350128;28;1012;-81
2022/12/08 00:20:11;;;;;;;;;;;;;;;;;;350075;28;996;-82
2022/12/08 00:20:21;;;;;;;;;;;;;;;;;;350132;28;881;-81
2022/12/08 00:20:31;;;;;;;;;;;;;;;;;;350001;28;1706;-81
2022/12/08 00:20:42;;;;;;;;;;;;;;;;;;350002;28;1029;-81
2022/12/08 00:20:55;;;;;;;;;;;;;;;;;;350205;28;849;-82
2022/12/08 00:21:05;;;;;;;;;;;;;;;;;;349989;28;990;-81
2022/12/08 00:21:16;;;;;;;;;;;;;;;;;;350161;28;992;-81
2022/12/08 00:21:27;;;;;;;;;;;;;;;;;;351202;28;1483;-82
2022/12/08 00:21:37;;;;;;;;;;;;;;;;;;352915;28;852;-81
2022/12/08 00:21:47;;;;;;;;;;;;;;;;;;352922;28;888;-82
2022/12/08 00:21:58;;;;;;;;;;;;;;;;;;352953;28;1000;-82
2022/12/08 00:22:09;;;;;;;;;;;;;;;;;;352936;28;912;-82
2022/12/08 00:22:19;;;;;;;;;;;;;;;;;;352847;28;1261;-79
2022/12/08 00:22:31;;;;;;;;;;;;;;;;;;352853;28;1971;-82
2022/12/08 00:22:41;;;;;;;;;;;;;;;;;;351907;28;1696;-82
2022/12/08 00:22:51;;;;;;;;;;;;;;;;;;351301;28;968;-81
2022/12/08 00:23:03;;;;;;;;;;;;;;;;;;351563;28;980;-81
2022/12/08 00:23:13;;;;;;;;;;;;;;;;;;351501;28;1350;-81
2022/12/08 00:23:23;;;;;;;;;;;;;;;;;;351564;28;936;-81
2022/12/08 00:23:34;;;;;;;;;;;;;;;;;;351564;28;873;-81
2022/12/08 00:23:44;;;;;;;;;;;;;;;;;;351500;28;937;-82
2022/12/08 00:23:55;;;;;;;;;;;;;;;;;;351548;28;877;-82
2022/12/08 00:24:05;;;;;;;;;;;;;;;;;;351576;28;782;-82
2022/12/08 00:24:15;;;;;;;;;;;;;;;;;;351580;28;964;-82
2022/12/08 00:24:29;;;;;;;;;;;;;;;;;;351561;28;932;-81
2022/12/08 00:24:40;;;;;;;;;;;;;;;;;;351492;28;929;-82
2022/12/08 00:24:50;;;;;;;;;;;;;;;;;;351607;28;798;-82
2022/12/08 00:25:00;;;;;;;;;;;;;;;;;;351546;28;924;-81
2022/12/08 00:25:11;;;;;;;;;;;;;;;;;;351528;28;1019;-81
2022/12/08 00:25:21;;;;;;;;;;;;;;;;;;351573;28;924;-81
2022/12/08 00:25:34;;;;;;;;;;;;;;;;;;351523;28;960;-81
2022/12/08 00:25:44;;;;;;;;;;;;;;;;;;351558;28;929;-81
2022/12/08 00:25:54;;;;;;;;;;;;;;;;;;350652;28;1710;-81
2022/12/08 00:26:05;;;;;;;;;;;;;;;;;;349910;28;1330;-81
2022/12/08 00:26:16;;;;;;;;;;;;;;;;;;350121;28;900;-81
2022/12/08 00:26:26;;;;;;;;;;;;;;;;;;349794;28;1702;-81
2022/12/08 00:26:37;;;;;;;;;;;;;;;;;;350052;28;920;-81
2022/12/08 00:26:47;;;;;;;;;;;;;;;;;;350135;28;1007;-81
2022/12/08 00:26:58;;;;;;;;;;;;;;;;;;350119;28;973;-81
2022/12/08 00:27:09;;;;;;;;;;;;;;;;;;350150;28;945;-82
2022/12/08 00:27:19;;;;;;;;;;;;;;;;;;349964;28;1103;-81
2022/12/08 00:27:29;;;;;;;;;;;;;;;;;;350158;28;798;-82
2022/12/08 00:27:39;;;;;;;;;;;;;;;;;;349931;28;1170;-81
2022/12/08 00:27:50;;;;;;;;;;;;;;;;;;350143;28;971;-82
2022/12/08 00:28:00;;;;;;;;;;;;;;;;;;350095;28;941;-82
2022/12/08 00:28:10;;;;;;;;;;;;;;;;;;350024;28;1098;-82
2022/12/08 00:28:20;;;;;;;;;;;;;;;;;;350136;28;913;-82
2022/12/08 00:28:31;;;;;;;;;;;;;;;;;;350198;28;913;-81
2022/12/08 00:28:41;;;;;;;;;;;;;;;;;;350117;28;1011;-81
2022/12/08 00:28:51;;;;;;;;;;;;;;;;;;350134;28;929;-82
2022/12/08 00:29:02;;;;;;;;;;;;;;;;;;350086;28;984;-81
2022/12/08 00:29:12;;;;;;;;;;;;;;;;;;350109;28;1208;-81
2022/12/08 00:29:23;;;;;;;;;;;;;;;;;;350068;28;997;-81
2022/12/08 00:29:33;;;;;;;;;;;;;;;;;;350146;28;929;-81
2022/12/08 00:29:44;;;;;;;;;;;;;;;;;;350120;28;992;-81
2022/12/08 00:29:54;;;;;;;;;;;;;;;;;;350124;28;932;-81
2022/12/08 00:30:05;;;;;;;;;;;;;;;;;;350072;28;932;-81
2022/12/08 00:30:15;;;;;;;;;;;;;;;;;;350168;28;921;-81
2022/12/08 00:30:25;;;;;;;;;;;;;;;;;;350141;28;945;-82
2022/12/08 00:30:38;;;;;;;;;;;;;;;;;;350141;28;941;-81
2022/12/08 00:30:48;;;;;;;;;;;;;;;;;;350037;28;1044;-81
2022/12/08 00:30:58;;;;;;;;;;;;;;;;;;350127;28;967;-82
2022/12/08 00:31:09;;;;;;;;;;;;;;;;;;350126;28;932;-81
2022/12/08 00:31:19;;;;;;;;;;;;;;;;;;350160;28;846;-81
2022/12/08 00:31:30;;;;;;;;;;;;;;;;;;350101;28;944;-81
2022/12/08 00:31:40;;;;;;;;;;;;;;;;;;350162;28;969;-81
2022/12/08 00:31:50;;;;;;;;;;;;;;;;;;350124;28;786;-81
2022/12/08 00:32:00;;;;;;;;;;;;;;;;;;350199;28;1015;-81
2022/12/08 00:32:11;;;;;;;;;;;;;;;;;;350066;28;826;-82
2022/12/08 00:32:21;;;;;;;;;;;;;;;;;;350119;28;937;-82
2022/12/08 00:32:31;;;;;;;;;;;;;;;;;;350133;28;910;-82
2022/12/08 00:32:41;;;;;;;;;;;;;;;;;;350157;28;861;-82
2022/12/08 00:32:52;;;;;;;;;;;;;;;;;;350042;28;983;-81
2022/12/08 00:33:02;;;;;;;;;;;;;;;;;;350159;28;976;-82
2022/12/08 00:33:12;;;;;;;;;;;;;;;;;;350184;28;913;-81
2022/12/08 00:33:22;;;;;;;;;;;;;;;;;;349794;28;1522;-82
2022/12/08 00:33:32;;;;;;;;;;;;;;;;;;350082;28;857;-81
2022/12/08 00:33:43;;;;;;;;;;;;;;;;;;350166;28;980;-82
2022/12/08 00:33:53;;;;;;;;;;;;;;;;;;350145;28;766;-82
2022/12/08 00:34:03;;;;;;;;;;;;;;;;;;350118;28;1031;-82
2022/12/08 00:34:14;;;;;;;;;;;;;;;;;;350910;28;1726;-83
2022/12/08 00:34:24;;;;;;;;;;;;;;;;;;351477;28;1242;-83
2022/12/08 00:34:34;;;;;;;;;;;;;;;;;;351557;28;959;-82
2022/12/08 00:34:44;;;;;;;;;;;;;;;;;;351578;28;830;-83
2022/12/08 00:34:54;;;;;;;;;;;;;;;;;;351518;28;972;-83
2022/12/08 00:35:05;;;;;;;;;;;;;;;;;;351538;28;901;-82
2022/12/08 00:35:15;;;;;;;;;;;;;;;;;;351608;28;845;-82
2022/12/08 00:35:25;;;;;;;;;;;;;;;;;;351504;28;955;-83
2022/12/08 00:35:35;;;;;;;;;;;;;;;;;;351584;28;790;-83
2022/12/08 00:35:46;;;;;;;;;;;;;;;;;;351500;28;1090;-82
2022/12/08 00:35:56;;;;;;;;;;;;;;;;;;349947;28;937;-83
2022/12/08 00:36:07;;;;;;;;;;;;;;;;;;350037;28;940;-82
2022/12/08 00:36:17;;;;;;;;;;;;;;;;;;349994;28;897;-82
2022/12/08 00:36:28;;;;;;;;;;;;;;;;;;349842;28;1132;-82
2022/12/08 00:36:38;;;;;;;;;;;;;;;;;;350009;28;921;-83
2022/12/08 00:36:48;;;;;;;;;;;;;;;;;;350006;28;995;-83
2022/12/08 00:36:59;;;;;;;;;;;;;;;;;;350047;28;892;-82
2022/12/08 00:37:09;;;;;;;;;;;;;;;;;;350076;28;900;-83
2022/12/08 00:37:19;;;;;;;;;;;;;;;;;;350027;28;979;-82
2022/12/08 00:37:29;;;;;;;;;;;;;;;;;;350052;28;887;-82
2022/12/08 00:37:40;;;;;;;;;;;;;;;;;;350059;28;900;-83
2022/12/08 00:37:50;;;;;;;;;;;;;;;;;;350284;28;1014;-83
2022/12/08 00:38:00;;;;;;;;;;;;;;;;;;351494;28;992;-82
2022/12/08 00:38:10;;;;;;;;;;;;;;;;;;351560;28;904;-83
2022/12/08 00:38:21;;;;;;;;;;;;;;;;;;351510;28;885;-83
2022/12/08 00:38:31;;;;;;;;;;;;;;;;;;351480;28;774;-82
2022/12/08 00:38:41;;;;;;;;;;;;;;;;;;351566;28;987;-83
2022/12/08 00:38:51;;;;;;;;;;;;;;;;;;351515;28;1000;-82
2022/12/08 00:39:01;;;;;;;;;;;;;;;;;;351502;28;878;-82
2022/12/08 00:39:12;;;;;;;;;;;;;;;;;;351483;28;924;-82
2022/12/08 00:39:23;;;;;;;;;;;;;;;;;;351521;28;1015;-82
2022/12/08 00:39:33;;;;;;;;;;;;;;;;;;351507;28;960;-82
2022/12/08 00:39:43;;;;;;;;;;;;;;;;;;351572;28;1039;-82
2022/12/08 00:39:53;;;;;;;;;;;;;;;;;;351556;28;904;-82
2022/12/08 00:40:04;;;;;;;;;;;;;;;;;;351482;28;1031;-82
2022/12/08 00:40:14;;;;;;;;;;;;;;;;;;351525;28;916;-82
2022/12/08 00:40:25;;;;;;;;;;;;;;;;;;351469;28;903;-82
2022/12/08 00:40:35;;;;;;;;;;;;;;;;;;351537;28;861;-82
2022/12/08 00:40:45;;;;;;;;;;;;;;;;;;351560;28;1000;-82
2022/12/08 00:40:56;;;;;;;;;;;;;;;;;;351543;28;778;-82
2022/12/08 00:41:10;;;;;;;;;;;;;;;;;;351532;28;904;-82
2022/12/08 00:42:19;;;;;;;;;;;;;;;;;;351504;28;1008;-81
2022/12/08 00:42:29;;;;;;;;;;;;;;;;;;351392;28;1972;-82
2022/12/08 00:42:39;;;;;;;;;;;;;;;;;;351574;28;987;-82
2022/12/08 00:42:49;;;;;;;;;;;;;;;;;;349630;28;1841;-81
2022/12/08 00:43:00;;;;;;;;;;;;;;;;;;350421;28;1214;-83
2022/12/08 00:43:10;;;;;;;;;;;;;;;;;;350118;28;870;-81
2022/12/08 00:43:20;;;;;;;;;;;;;;;;;;349701;28;1733;-81
2022/12/08 00:43:30;;;;;;;;;;;;;;;;;;350125;28;921;-81
2022/12/08 00:43:41;;;;;;;;;;;;;;;;;;350162;28;786;-81
2022/12/08 00:43:51;;;;;;;;;;;;;;;;;;350139;28;1062;-83
2022/12/08 00:44:01;;;;;;;;;;;;;;;;;;350100;28;795;-81
2022/12/08 00:44:13;;;;;;;;;;;;;;;;;;350148;28;960;-82
2022/12/08 00:44:23;;;;;;;;;;;;;;;;;;350173;28;770;-83
2022/12/08 00:44:33;;;;;;;;;;;;;;;;;;350078;28;1023;-82
2022/12/08 00:44:44;;;;;;;;;;;;;;;;;;350226;28;956;-82
2022/12/08 00:44:54;;;;;;;;;;;;;;;;;;350045;28;1155;-82
2022/12/08 00:45:05;;;;;;;;;;;;;;;;;;350127;28;983;-82
2022/12/08 00:45:15;;;;;;;;;;;;;;;;;;350160;28;1047;-82
2022/12/08 00:45:25;;;;;;;;;;;;;;;;;;350124;28;791;-83
2022/12/08 00:45:35;;;;;;;;;;;;;;;;;;349959;28;1239;-82
2022/12/08 00:45:45;;;;;;;;;;;;;;;;;;350177;28;881;-82
2022/12/08 00:45:56;;;;;;;;;;;;;;;;;;349945;28;1029;-82
2022/12/08 00:46:06;;;;;;;;;;;;;;;;;;350130;28;941;-82
2022/12/08 00:46:16;;;;;;;;;;;;;;;;;;350136;28;841;-82
2022/12/08 00:46:26;;;;;;;;;;;;;;;;;;350092;28;917;-81
2022/12/08 00:46:36;;;;;;;;;;;;;;;;;;350148;28;1052;-82
2022/12/08 00:46:47;;;;;;;;;;;;;;;;;;350058;28;1020;-81
2022/12/08 00:46:57;;;;;;;;;;;;;;;;;;350097;28;972;-82
2022/12/08 00:47:08;;;;;;;;;;;;;;;;;;350152;28;857;-81
2022/12/08 00:47:18;;;;;;;;;;;;;;;;;;350168;28;868;-81
2022/12/08 00:47:28;;;;;;;;;;;;;;;;;;350097;28;917;-82
2022/12/08 00:47:38;;;;;;;;;;;;;;;;;;350246;28;1781;-83
2022/12/08 00:47:48;;;;;;;;;;;;;;;;;;349932;28;1925;-82
2022/12/08 00:47:59;;;;;;;;;;;;;;;;;;350130;28;838;-81
2022/12/08 00:48:09;;;;;;;;;;;;;;;;;;349422;28;1344;-81
2022/12/08 00:48:19;;;;;;;;;;;;;;;;;;350152;28;763;-81
2022/12/08 00:48:29;;;;;;;;;;;;;;;;;;348667;28;865;-80
2022/12/08 00:48:39;;;;;;;;;;;;;;;;;;348621;28;1005;-80
2022/12/08 00:48:50;;;;;;;;;;;;;;;;;;348618;28;1090;-81
2022/12/08 00:49:00;;;;;;;;;;;;;;;;;;348585;28;913;-80
2022/12/08 00:49:11;;;;;;;;;;;;;;;;;;348672;28;834;-81
2022/12/08 00:49:21;;;;;;;;;;;;;;;;;;348644;28;933;-81
2022/12/08 00:49:31;;;;;;;;;;;;;;;;;;348638;28;949;-82
2022/12/08 00:49:42;;;;;;;;;;;;;;;;;;348660;28;921;-81
2022/12/08 00:49:52;;;;;;;;;;;;;;;;;;348678;28;802;-81
2022/12/08 00:50:03;;;;;;;;;;;;;;;;;;348660;28;967;-81
2022/12/08 00:50:13;;;;;;;;;;;;;;;;;;348500;28;1013;-81
2022/12/08 00:50:23;;;;;;;;;;;;;;;;;;347458;28;1167;-81
2022/12/08 00:50:33;;;;;;;;;;;;;;;;;;348677;28;953;-81
2022/12/08 00:50:44;;;;;;;;;;;;;;;;;;348643;28;965;-82
2022/12/08 00:50:54;;;;;;;;;;;;;;;;;;348319;28;1166;-80
2022/12/08 00:51:04;;;;;;;;;;;;;;;;;;348658;28;893;-82
2022/12/08 00:51:14;;;;;;;;;;;;;;;;;;348679;28;758;-81
2022/12/08 00:51:24;;;;;;;;;;;;;;;;;;348669;28;925;-81
2022/12/08 00:51:35;;;;;;;;;;;;;;;;;;348573;28;876;-82
2022/12/08 00:51:45;;;;;;;;;;;;;;;;;;348692;28;953;-82
2022/12/08 00:51:55;;;;;;;;;;;;;;;;;;348669;28;1075;-81
2022/12/08 00:52:06;;;;;;;;;;;;;;;;;;348650;28;992;-81
2022/12/08 00:52:16;;;;;;;;;;;;;;;;;;348886;28;944;-81
2022/12/08 00:52:26;;;;;;;;;;;;;;;;;;350097;28;1028;-82
2022/12/08 00:52:36;;;;;;;;;;;;;;;;;;350105;28;968;-80
2022/12/08 00:52:46;;;;;;;;;;;;;;;;;;350129;28;790;-82
2022/12/08 00:52:57;;;;;;;;;;;;;;;;;;350054;28;997;-81
2022/12/08 00:53:07;;;;;;;;;;;;;;;;;;350118;28;857;-81
2022/12/08 00:53:17;;;;;;;;;;;;;;;;;;350082;28;912;-80
2022/12/08 00:53:28;;;;;;;;;;;;;;;;;;350138;28;798;-80
2022/12/08 00:53:39;;;;;;;;;;;;;;;;;;350089;28;924;-81
2022/12/08 00:53:49;;;;;;;;;;;;;;;;;;350107;28;920;-80
2022/12/08 00:53:59;;;;;;;;;;;;;;;;;;350141;28;904;-81
2022/12/08 00:54:10;;;;;;;;;;;;;;;;;;350094;28;858;-80
2022/12/08 00:54:21;;;;;;;;;;;;;;;;;;350061;28;917;-80
2022/12/08 00:54:32;;;;;;;;;;;;;;;;;;351570;28;1189;-80
2022/12/08 00:54:42;;;;;;;;;;;;;;;;;;351559;28;936;-80
2022/12/08 00:54:52;;;;;;;;;;;;;;;;;;351512;28;921;-80
2022/12/08 00:55:03;;;;;;;;;;;;;;;;;;351477;28;886;-80
2022/12/08 00:55:13;;;;;;;;;;;;;;;;;;351522;28;877;-81
2022/12/08 00:55:24;;;;;;;;;;;;;;;;;;351220;28;1060;-81
2022/12/08 00:55:34;;;;;;;;;;;;;;;;;;351454;28;975;-81
2022/12/08 00:55:44;;;;;;;;;;;;;;;;;;351508;28;989;-80
2022/12/08 00:55:54;;;;;;;;;;;;;;;;;;351556;28;975;-80
2022/12/08 00:56:04;;;;;;;;;;;;;;;;;;351459;28;904;-80
2022/12/08 00:56:15;;;;;;;;;;;;;;;;;;351440;28;965;-81
2022/12/08 00:56:25;;;;;;;;;;;;;;;;;;351059;28;1695;-80
2022/12/08 00:56:36;;;;;;;;;;;;;;;;;;350082;28;937;-81
2022/12/08 00:56:46;;;;;;;;;;;;;;;;;;350141;28;977;-81
2022/12/08 00:56:56;;;;;;;;;;;;;;;;;;348550;28;1295;-81
2022/12/08 00:57:06;;;;;;;;;;;;;;;;;;348567;28;933;-80
2022/12/08 00:57:17;;;;;;;;;;;;;;;;;;348597;28;980;-80
2022/12/08 00:57:27;;;;;;;;;;;;;;;;;;348642;28;957;-81
2022/12/08 00:57:37;;;;;;;;;;;;;;;;;;348655;28;826;-80
2022/12/08 00:57:47;;;;;;;;;;;;;;;;;;348688;28;1715;-80
2022/12/08 00:57:57;;;;;;;;;;;;;;;;;;348326;28;1667;-81
2022/12/08 00:58:08;;;;;;;;;;;;;;;;;;348558;28;968;-80
2022/12/08 00:58:18;;;;;;;;;;;;;;;;;;348622;28;881;-80
2022/12/08 00:58:28;;;;;;;;;;;;;;;;;;348677;28;921;-80
2022/12/08 00:58:38;;;;;;;;;;;;;;;;;;348603;28;899;-80
2022/12/08 00:58:48;;;;;;;;;;;;;;;;;;348833;28;893;-80
2022/12/08 00:58:59;;;;;;;;;;;;;;;;;;350099;28;1189;-80
2022/12/08 00:59:09;;;;;;;;;;;;;;;;;;349999;28;941;-80
2022/12/08 00:59:19;;;;;;;;;;;;;;;;;;350084;28;882;-80
2022/12/08 00:59:30;;;;;;;;;;;;;;;;;;350123;28;945;-80
2022/12/08 00:59:40;;;;;;;;;;;;;;;;;;350066;28;869;-80
2022/12/08 00:59:50;;;;;;;;;;;;;;;;;;349987;28;1001;-81
2022/12/08 01:00:00;;;;;;;;;;;;;;;;;;350107;28;917;-80
2022/12/08 01:00:11;;;;;;;;;;;;;;;;;;350112;28;1115;-80
2022/12/08 01:00:21;;;;;;;;;;;;;;;;;;350125;28;782;-80
2022/12/08 01:00:31;;;;;;;;;;;;;;;;;;350072;28;981;-80
2022/12/08 01:00:42;;;;;;;;;;;;;;;;;;350065;28;909;-80
2022/12/08 01:00:52;;;;;;;;;;;;;;;;;;350108;28;921;-80
2022/12/08 01:01:08;;;;;;;;;;;;;;;;;;349977;28;978;-80
2022/12/08 01:01:18;;;;;;;;;;;;;;;;;;349947;28;1717;-80
2022/12/08 01:01:29;;;;;;;;;;;;;;;;;;350181;28;806;-80
2022/12/08 01:01:39;;;;;;;;;;;;;;;;;;350127;28;956;-80
2022/12/08 01:01:49;;;;;;;;;;;;;;;;;;350149;28;960;-80
2022/12/08 01:02:00;;;;;;;;;;;;;;;;;;350138;28;793;-80
2022/12/08 01:02:10;;;;;;;;;;;;;;;;;;350033;28;856;-80
2022/12/08 01:02:20;;;;;;;;;;;;;;;;;;350094;28;952;-80
2022/12/08 01:02:32;;;;;;;;;;;;;;;;;;350057;28;1906;-80
2022/12/08 01:02:42;;;;;;;;;;;;;;;;;;350089;28;853;-80
2022/12/08 01:02:53;;;;;;;;;;;;;;;;;;350111;28;956;-80
2022/12/08 01:03:03;;;;;;;;;;;;;;;;;;350075;28;863;-80
2022/12/08 01:03:13;;;;;;;;;;;;;;;;;;350131;28;940;-80
2022/12/08 01:03:24;;;;;;;;;;;;;;;;;;349651;28;1697;-80
2022/12/08 01:03:34;;;;;;;;;;;;;;;;;;351414;28;996;-80
2022/12/08 01:03:44;;;;;;;;;;;;;;;;;;351505;28;830;-80
2022/12/08 01:03:54;;;;;;;;;;;;;;;;;;351461;28;837;-80
2022/12/08 01:04:05;;;;;;;;;;;;;;;;;;351506;28;971;-81
2022/12/08 01:04:17;;;;;;;;;;;;;;;;;;351502;28;992;-80
2022/12/08 01:04:27;;;;;;;;;;;;;;;;;;351485;28;961;-81
2022/12/08 01:04:38;;;;;;;;;;;;;;;;;;351518;28;859;-80
2022/12/08 01:04:48;;;;;;;;;;;;;;;;;;351468;28;976;-80
2022/12/08 01:04:58;;;;;;;;;;;;;;;;;;351532;28;1031;-80
2022/12/08 01:05:08;;;;;;;;;;;;;;;;;;351515;28;885;-80
2022/12/08 01:05:19;;;;;;;;;;;;;;;;;;351526;28;909;-81
2022/12/08 01:05:29;;;;;;;;;;;;;;;;;;351411;28;964;-80
2022/12/08 01:05:39;;;;;;;;;;;;;;;;;;351541;28;901;-80
2022/12/08 01:05:49;;;;;;;;;;;;;;;;;;351525;28;829;-80
2022/12/08 01:06:01;;;;;;;;;;;;;;;;;;351505;28;912;-80
2022/12/08 01:06:11;;;;;;;;;;;;;;;;;;351475;28;952;-80
2022/12/08 01:06:22;;;;;;;;;;;;;;;;;;351515;28;999;-80
2022/12/08 01:06:35;;;;;;;;;;;;;;;;;;351412;28;1005;-80
2022/12/08 01:06:46;;;;;;;;;;;;;;;;;;351450;28;975;-80
2022/12/08 01:06:56;;;;;;;;;;;;;;;;;;351534;28;929;-80
2022/12/08 01:07:06;;;;;;;;;;;;;;;;;;351528;28;841;-80
2022/12/08 01:07:17;;;;;;;;;;;;;;;;;;351541;28;917;-80
2022/12/08 01:07:27;;;;;;;;;;;;;;;;;;351428;28;924;-80
2022/12/08 01:07:37;;;;;;;;;;;;;;;;;;351463;28;821;-80
2022/12/08 01:07:48;;;;;;;;;;;;;;;;;;351526;28;921;-79
2022/12/08 01:07:58;;;;;;;;;;;;;;;;;;351483;28;960;-80
2022/12/08 01:08:08;;;;;;;;;;;;;;;;;;351426;28;1125;-80
2022/12/08 01:08:18;;;;;;;;;;;;;;;;;;351534;28;861;-80
2022/12/08 01:08:29;;;;;;;;;;;;;;;;;;351486;28;1015;-80
2022/12/08 01:08:40;;;;;;;;;;;;;;;;;;351512;28;963;-81
2022/12/08 01:08:50;;;;;;;;;;;;;;;;;;351449;28;987;-80
2022/12/08 01:09:02;;;;;;;;;;;;;;;;;;351529;28;1100;-80
2022/12/08 01:09:13;;;;;;;;;;;;;;;;;;351497;28;952;-80
2022/12/08 01:09:23;;;;;;;;;;;;;;;;;;351432;28;925;-80
2022/12/08 01:09:33;;;;;;;;;;;;;;;;;;351416;28;885;-81
2022/12/08 01:09:44;;;;;;;;;;;;;;;;;;351515;28;770;-80
2022/12/08 01:09:54;;;;;;;;;;;;;;;;;;351490;28;992;-80
2022/12/08 01:10:05;;;;;;;;;;;;;;;;;;351512;28;976;-80
2022/12/08 01:10:15;;;;;;;;;;;;;;;;;;351535;28;865;-80
2022/12/08 01:10:25;;;;;;;;;;;;;;;;;;350544;28;1442;-80
2022/12/08 01:10:36;;;;;;;;;;;;;;;;;;350121;28;925;-81
2022/12/08 01:10:46;;;;;;;;;;;;;;;;;;350120;28;925;-80
2022/12/08 01:11:01;;;;;;;;;;;;;;;;;;350095;28;1015;-80
2022/12/08 01:11:13;;;;;;;;;;;;;;;;;;350035;28;912;-79
2022/12/08 01:11:23;;;;;;;;;;;;;;;;;;350108;28;786;-80
2022/12/08 01:11:34;;;;;;;;;;;;;;;;;;350085;28;920;-80
2022/12/08 01:11:45;;;;;;;;;;;;;;;;;;350031;28;932;-80
2022/12/08 01:11:55;;;;;;;;;;;;;;;;;;350120;28;861;-80
2022/12/08 01:12:06;;;;;;;;;;;;;;;;;;350082;28;965;-80
2022/12/08 01:12:16;;;;;;;;;;;;;;;;;;350114;28;952;-80
2022/12/08 01:12:28;;;;;;;;;;;;;;;;;;349445;28;1471;-80
2022/12/08 01:12:38;;;;;;;;;;;;;;;;;;350252;28;1087;-80
2022/12/08 01:12:48;;;;;;;;;;;;;;;;;;351491;28;928;-80
2022/12/08 01:12:58;;;;;;;;;;;;;;;;;;351496;28;1470;-80
2022/12/08 01:13:08;;;;;;;;;;;;;;;;;;352934;28;829;-80
2022/12/08 01:13:19;;;;;;;;;;;;;;;;;;352964;28;968;-80
2022/12/08 01:13:29;;;;;;;;;;;;;;;;;;352893;28;987;-80
2022/12/08 01:13:40;;;;;;;;;;;;;;;;;;352907;28;995;-80
2022/12/08 01:13:50;;;;;;;;;;;;;;;;;;352800;28;979;-80
2022/12/08 01:14:00;;;;;;;;;;;;;;;;;;352913;28;916;-80
2022/12/08 01:14:11;;;;;;;;;;;;;;;;;;350823;28;1387;-80
2022/12/08 01:14:22;;;;;;;;;;;;;;;;;;350095;28;928;-80
2022/12/08 01:14:32;;;;;;;;;;;;;;;;;;350132;28;782;-80
2022/12/08 01:14:42;;;;;;;;;;;;;;;;;;350045;28;921;-79
2022/12/08 01:14:52;;;;;;;;;;;;;;;;;;350115;28;783;-80
2022/12/08 01:15:03;;;;;;;;;;;;;;;;;;350084;28;900;-80
2022/12/08 01:15:13;;;;;;;;;;;;;;;;;;350069;28;972;-80
2022/12/08 01:15:23;;;;;;;;;;;;;;;;;;350113;28;778;-80
2022/12/08 01:15:33;;;;;;;;;;;;;;;;;;350142;28;972;-80
2022/12/08 01:15:43;;;;;;;;;;;;;;;;;;350035;28;999;-80
2022/12/08 01:15:54;;;;;;;;;;;;;;;;;;349946;28;1683;-80
2022/12/08 01:16:04;;;;;;;;;;;;;;;;;;351499;28;857;-80
2022/12/08 01:16:22;;;;;;;;;;;;;;;;;;351442;28;960;-80
2022/12/08 01:16:34;;;;;;;;;;;;;;;;;;351476;28;929;-80
2022/12/08 01:16:44;;;;;;;;;;;;;;;;;;351398;28;936;-80
2022/12/08 01:16:54;;;;;;;;;;;;;;;;;;351511;28;948;-80
2022/12/08 01:17:04;;;;;;;;;;;;;;;;;;351499;28;921;-80
2022/12/08 01:17:15;;;;;;;;;;;;;;;;;;351478;28;1107;-80
2022/12/08 01:17:25;;;;;;;;;;;;;;;;;;351529;28;865;-80
2022/12/08 01:17:35;;;;;;;;;;;;;;;;;;351498;28;937;-80
2022/12/08 01:17:46;;;;;;;;;;;;;;;;;;351449;28;837;-80
2022/12/08 01:17:56;;;;;;;;;;;;;;;;;;351225;28;1671;-80
2022/12/08 01:18:06;;;;;;;;;;;;;;;;;;350766;28;1393;-80
2022/12/08 01:18:16;;;;;;;;;;;;;;;;;;351314;28;1422;-80
2022/12/08 01:18:27;;;;;;;;;;;;;;;;;;351510;28;814;-80
2022/12/08 01:18:37;;;;;;;;;;;;;;;;;;350527;28;1289;-81
2022/12/08 01:18:47;;;;;;;;;;;;;;;;;;350040;28;909;-80
2022/12/08 01:18:58;;;;;;;;;;;;;;;;;;350113;28;893;-80
2022/12/08 01:19:09;;;;;;;;;;;;;;;;;;350097;28;933;-80
2022/12/08 01:19:19;;;;;;;;;;;;;;;;;;350059;28;984;-80
2022/12/08 01:19:30;;;;;;;;;;;;;;;;;;350148;28;822;-80
2022/12/08 01:19:40;;;;;;;;;;;;;;;;;;350096;28;869;-80
2022/12/08 01:19:50;;;;;;;;;;;;;;;;;;350056;28;917;-80
2022/12/08 01:20:00;;;;;;;;;;;;;;;;;;350048;28;941;-80
2022/12/08 01:20:11;;;;;;;;;;;;;;;;;;349976;28;975;-80
2022/12/08 01:20:21;;;;;;;;;;;;;;;;;;350096;28;818;-80
2022/12/08 01:20:31;;;;;;;;;;;;;;;;;;350101;28;944;-80
2022/12/08 01:20:41;;;;;;;;;;;;;;;;;;350073;28;948;-81
2022/12/08 01:20:51;;;;;;;;;;;;;;;;;;350111;28;874;-80